KSCR/SCR METAR and TAF weather

Enter ICAO airport designator
Station Type Date Time Source
KSCR METAR 2021/07/28 04:35 UTC NOAA

KSCR 280435Z AUTO 00000KT 10SM CLR 23/22 A3001 RMK AO2 T02340218


Station Type Date Time Source
KSCR Decoded METAR 2021/07/28 04:35 UTC NOAA

Station name not available
Jul 28, 2021 - 12:35 AM EDT / 2021.07.28 0435 UTC
Wind: Calm:0
Visibility: 10 mile(s):0
Sky conditions: clear
Temperature: 74.1 F (23.4 C)
Dew Point: 71.2 F (21.8 C)
Relative Humidity: 90%
Pressure (altimeter): 30.01 in. Hg (1016 hPa)
ob: KSCR 280435Z AUTO 00000KT 10SM CLR 23/22 A3001 RMK AO2 T02340218
cycle: 4

Station Type Date Time Source
KSCR TAF UTC NOAA

Error!

Example: see airport list